Liberty Eagle — WHIA — position and weather

sailwx.info

Track history (hours):
 
Tides and Currents Weather Stations Pressure Air Temp Water Temp Dewpoint Dewpoint Depression Visibility Wind Speed Wind Dir Waves Ship Positions

Liberty Eagle

More information available from US FCC via Universal Licensing System and Coast Guard Vessel Documentation Center.

Last reported at 2014-Aug-15 03:24 UTC. Time now 2014-Aug-20 08:46 UTC.
Position N 29°55' W 090°12'.

Type: Cargo ship. MMSI: 369344000.

Date/timePositionNaut miles runAvg speedWind from/ knotsBaromVisibWave heightAir tempDewpointWater temp
2014-Aug-15 03:24N 29°55' W 090°12'1011.6
2014-Aug-15 02:33N 29°57' W 090°23'1211.8
2014-Aug-15 01:33N 30°03' W 090°35'1212.3
2014-Aug-15 00:33N 29°59' W 090°48'10 0.8
2014-Aug-14 12:19N 30°08' W 090°55'0 0.0
2014-Aug-14 11:31N 30°08' W 090°55'0 0.0
2014-Aug-14 10:31N 30°08' W 090°55'0 0.0
2014-Aug-14 09:28N 30°08' W 090°55'0 0.0
2014-Aug-14 08:28N 30°08' W 090°55'0 0.0
2014-Aug-14 07:25N 30°08' W 090°55'0 0.0
2014-Aug-14 06:31N 30°08' W 090°55'0 0.0
2014-Aug-14 05:19N 30°08' W 090°55'0 0.0
2014-Aug-14 04:22N 30°08' W 090°55'0 0.0
2014-Aug-13 11:10N 30°08' W 090°55'0 0.0
2014-Aug-13 05:25N 30°08' W 090°55'0 0.0
2014-Aug-12 08:22N 30°08' W 090°55'0 0.0
2014-Aug-11 12:31N 30°08' W 090°55'0 0.0
2014-Aug-11 11:28N 30°08' W 090°55'0 0.0
2014-Aug-11 10:28N 30°08' W 090°55'0 0.0
2014-Aug-11 09:31N 30°08' W 090°55'2 2.5
2014-Aug-11 08:33N 30°05' W 090°55'0 0.4
2014-Aug-11 07:31N 30°05' W 090°54'0 0.0
2014-Aug-11 06:28N 30°05' W 090°54'0 0.0
2014-Aug-11 05:31N 30°05' W 090°54'0 0.0
2014-Aug-11 03:13N 30°05' W 090°54'0 0.0
2014-Aug-10 19:31N 30°05' W 090°54'0 0.0
2014-Aug-10 17:32N 30°05' W 090°54'0 0.0
2014-Aug-10 16:12N 30°05' W 090°54'8 4.2
2014-Aug-10 14:16N 30°01' W 090°46'7 9.5
2014-Aug-10 13:30N 30°02' W 090°38'9 7.9
2014-Aug-10 12:24N 30°00' W 090°28'8 9.2
2014-Aug-10 11:33N 29°56' W 090°21'7 6.9
2014-Aug-10 10:33N 29°55' W 090°13'8 7.8
2014-Aug-10 09:32N 29°56' W 090°03'7 6.8
2014-Aug-10 08:33N 29°55' W 089°56'7 6.8
2014-Aug-10 07:30N 29°49' W 090°00'1010.1
2014-Aug-10 06:32N 29°40' W 089°57'  
Track history (hours):
 
Tides and Currents Weather Stations Pressure Air Temp Water Temp Dewpoint Dewpoint Depression Visibility Wind Speed Wind Dir Waves Ship Positions

Liberty Eagle

More information available from US FCC via Universal Licensing System and Coast Guard Vessel Documentation Center.

Last reported at 2014-Aug-15 03:24 UTC. Time now 2014-Aug-20 08:46 UTC.
Position N 29°55' W 090°12'.

Type: Cargo ship. MMSI: 369344000.

Date/timePositionNaut miles runAvg speedWind from/ knotsBaromVisibWave heightAir tempDewpointWater temp
2014-Aug-15 03:24N 29°55' W 090°12'1011.6
2014-Aug-15 02:33N 29°57' W 090°23'1211.8
2014-Aug-15 01:33N 30°03' W 090°35'1212.3
2014-Aug-15 00:33N 29°59' W 090°48'10 0.8
2014-Aug-14 12:19N 30°08' W 090°55'0 0.0
2014-Aug-14 11:31N 30°08' W 090°55'0 0.0
2014-Aug-14 10:31N 30°08' W 090°55'0 0.0
2014-Aug-14 09:28N 30°08' W 090°55'0 0.0
2014-Aug-14 08:28N 30°08' W 090°55'0 0.0
2014-Aug-14 07:25N 30°08' W 090°55'0 0.0
2014-Aug-14 06:31N 30°08' W 090°55'0 0.0
2014-Aug-14 05:19N 30°08' W 090°55'0 0.0
2014-Aug-14 04:22N 30°08' W 090°55'0 0.0
2014-Aug-13 11:10N 30°08' W 090°55'0 0.0
2014-Aug-13 05:25N 30°08' W 090°55'0 0.0
2014-Aug-12 08:22N 30°08' W 090°55'0 0.0
2014-Aug-11 12:31N 30°08' W 090°55'0 0.0
2014-Aug-11 11:28N 30°08' W 090°55'0 0.0
2014-Aug-11 10:28N 30°08' W 090°55'0 0.0
2014-Aug-11 09:31N 30°08' W 090°55'2 2.5
2014-Aug-11 08:33N 30°05' W 090°55'0 0.4
2014-Aug-11 07:31N 30°05' W 090°54'0 0.0
2014-Aug-11 06:28N 30°05' W 090°54'0 0.0
2014-Aug-11 05:31N 30°05' W 090°54'0 0.0
2014-Aug-11 03:13N 30°05' W 090°54'0 0.0
2014-Aug-10 19:31N 30°05' W 090°54'0 0.0
2014-Aug-10 17:32N 30°05' W 090°54'0 0.0
2014-Aug-10 16:12N 30°05' W 090°54'8 4.2
2014-Aug-10 14:16N 30°01' W 090°46'7 9.5
2014-Aug-10 13:30N 30°02' W 090°38'9 7.9
2014-Aug-10 12:24N 30°00' W 090°28'8 9.2
2014-Aug-10 11:33N 29°56' W 090°21'7 6.9
2014-Aug-10 10:33N 29°55' W 090°13'8 7.8
2014-Aug-10 09:32N 29°56' W 090°03'7 6.8
2014-Aug-10 08:33N 29°55' W 089°56'7 6.8
2014-Aug-10 07:30N 29°49' W 090°00'1010.1
2014-Aug-10 06:32N 29°40' W 089°57'  

Dump ship's entire track history